Portada
METAR-TAF:

METAR-TAF

Aeropuertos :

Bagdad, Iraq

Aeropuerto Internacional de Bagdad

latitud: 33-15-45N, longitud: 44-14-04E, altitud: 35 m

Observación

El informe se hizo hace 15 horas y 5 minutos, a las 17:00 UTC
Viento 9 kt del oeste-noroeste
Temperatura 39°C
Humedad 12%
Presión 1005 hPa
Visibilidad 10 km o más
sin nubes por debajo de 1500 m y sin presencia de cumulonimbus.

METAR: ORBI 191700Z 29009KT CAVOK 39/05 Q1005 NOSIG

Hora: 11:05 (08:05 UTC)

Pronóstico

El informe se hizo hace 4 horas y 5 minutos, a las 04:00 UTC
Pronóstico válido del 20 a las 06 UTC al 21 a las 06 UTC
Viento 8 kt del norte-noroeste
Visibilidad: 8000 m

TAF: ORBI 200400Z 2006/2106 33008KT 8000 NSC

Observaciones y pronósticos meteorológicos de más de 4000 aeropuertos (mensajes METAR y TAF).

Los puntos amarillos y rojos representan las estaciones disponibles.

Ponga el ratón en el punto deseado para ver el nombre de la estación.

Haga clic para ver las observaciones y los pronósticos meteorológicos.

Para cambiar el mapa : haga clic en los botones verdes con una cruz de color negro para hacer un zoom, en el botón verde con un guión para alejar o en las flechas verdes para mapas adyacentes.


METAR-TAF: